sensor_id;sensor_type;location;lat;lon;timestamp;pressure;altitude;pressure_sealevel;temperature;humidity
11605;BME280;5858;43.076;25.626;2023-04-22T00:01:34;98923.88;;;10.44;99.08
11605;BME280;5858;43.076;25.626;2023-04-22T00:04:04;98971.66;;;10.75;99.05
11605;BME280;5858;43.076;25.626;2023-04-22T00:06:32;98976.38;;;10.72;98.79
11605;BME280;5858;43.076;25.626;2023-04-22T00:08:59;98887.56;;;10.34;98.59
11605;BME280;5858;43.076;25.626;2023-04-22T00:11:26;98966.16;;;10.83;98.76
11605;BME280;5858;43.076;25.626;2023-04-22T00:13:53;99022.03;;;11.14;98.29
11605;BME280;5858;43.076;25.626;2023-04-22T00:16:20;98950.00;;;10.69;98.60
11605;BME280;5858;43.076;25.626;2023-04-22T00:18:49;98996.56;;;10.75;99.67
11605;BME280;5858;43.076;25.626;2023-04-22T00:21:16;99016.38;;;11.02;98.54
11605;BME280;5858;43.076;25.626;2023-04-22T00:23:43;98907.63;;;10.24;99.01
11605;BME280;5858;43.076;25.626;2023-04-22T00:26:11;98965.19;;;10.62;99.68
11605;BME280;5858;43.076;25.626;2023-04-22T00:28:42;98973.59;;;10.59;99.52
11605;BME280;5858;43.076;25.626;2023-04-22T00:31:22;98996.72;;;10.88;98.58
11605;BME280;5858;43.076;25.626;2023-04-22T00:33:54;98956.13;;;10.63;98.51
11605;BME280;5858;43.076;25.626;2023-04-22T00:36:23;98863.84;;;9.89;99.12
11605;BME280;5858;43.076;25.626;2023-04-22T00:39:09;98935.94;;;10.39;99.94
11605;BME280;5858;43.076;25.626;2023-04-22T00:41:37;98906.44;;;10.12;99.51
11605;BME280;5858;43.076;25.626;2023-04-22T00:44:05;98918.44;;;10.37;99.33
11605;BME280;5858;43.076;25.626;2023-04-22T00:46:36;99007.97;;;10.84;99.57
11605;BME280;5858;43.076;25.626;2023-04-22T00:49:04;98943.00;;;10.26;100.00
11605;BME280;5858;43.076;25.626;2023-04-22T00:51:32;99012.78;;;10.88;100.00
11605;BME280;5858;43.076;25.626;2023-04-22T00:54:00;98900.31;;;10.18;99.53
11605;BME280;5858;43.076;25.626;2023-04-22T00:56:29;98946.00;;;10.59;99.39
11605;BME280;5858;43.076;25.626;2023-04-22T00:58:57;98848.16;;;10.00;98.90
11605;BME280;5858;43.076;25.626;2023-04-22T01:01:25;98910.28;;;10.45;98.87
11605;BME280;5858;43.076;25.626;2023-04-22T01:03:52;98903.91;;;10.25;98.86
11605;BME280;5858;43.076;25.626;2023-04-22T01:06:23;98831.13;;;9.87;98.83
11605;BME280;5858;43.076;25.626;2023-04-22T01:08:51;99011.81;;;10.96;99.15
11605;BME280;5858;43.076;25.626;2023-04-22T01:11:18;98887.88;;;10.25;99.25
11605;BME280;5858;43.076;25.626;2023-04-22T01:13:45;98966.97;;;10.55;99.66
11605;BME280;5858;43.076;25.626;2023-04-22T01:16:12;99022.88;;;10.71;100.00
11605;BME280;5858;43.076;25.626;2023-04-22T01:18:39;98908.53;;;9.95;100.00
11605;BME280;5858;43.076;25.626;2023-04-22T01:21:06;98936.63;;;10.27;100.00
11605;BME280;5858;43.076;25.626;2023-04-22T01:23:35;98846.59;;;9.70;100.00
11605;BME280;5858;43.076;25.626;2023-04-22T01:26:02;99011.59;;;10.76;100.00
11605;BME280;5858;43.076;25.626;2023-04-22T01:28:29;99028.44;;;10.70;100.00
11605;BME280;5858;43.076;25.626;2023-04-22T01:30:57;98907.13;;;9.99;100.00
11605;BME280;5858;43.076;25.626;2023-04-22T01:33:24;98952.31;;;10.30;100.00
11605;BME280;5858;43.076;25.626;2023-04-22T01:35:52;98903.19;;;9.95;100.00
11605;BME280;5858;43.076;25.626;2023-04-22T01:38:20;98946.06;;;10.23;100.00
11605;BME280;5858;43.076;25.626;2023-04-22T01:40:50;99002.38;;;10.57;100.00
11605;BME280;5858;43.076;25.626;2023-04-22T01:43:17;98950.28;;;10.17;100.00
11605;BME280;5858;43.076;25.626;2023-04-22T01:45:45;98947.69;;;10.02;100.00
11605;BME280;5858;43.076;25.626;2023-04-22T01:48:14;98878.38;;;9.65;100.00
11605;BME280;5858;43.076;25.626;2023-04-22T01:50:41;98948.44;;;10.18;100.00
11605;BME280;5858;43.076;25.626;2023-04-22T01:53:08;98943.69;;;10.13;100.00
11605;BME280;5858;43.076;25.626;2023-04-22T01:55:36;98900.16;;;9.83;100.00
11605;BME280;5858;43.076;25.626;2023-04-22T01:58:05;98969.31;;;10.07;100.00
11605;BME280;5858;43.076;25.626;2023-04-22T02:00:32;98933.69;;;9.86;100.00
11605;BME280;5858;43.076;25.626;2023-04-22T02:03:00;98809.53;;;9.09;100.00
11605;BME280;5858;43.076;25.626;2023-04-22T02:05:27;98885.88;;;9.55;100.00
11605;BME280;5858;43.076;25.626;2023-04-22T02:07:54;98984.41;;;10.15;100.00
11605;BME280;5858;43.076;25.626;2023-04-22T02:10:21;98869.03;;;9.39;100.00
11605;BME280;5858;43.076;25.626;2023-04-22T02:12:49;98860.00;;;9.40;100.00
11605;BME280;5858;43.076;25.626;2023-04-22T02:15:17;98967.03;;;10.04;100.00
11605;BME280;5858;43.076;25.626;2023-04-22T02:17:44;98851.19;;;9.25;100.00
11605;BME280;5858;43.076;25.626;2023-04-22T02:20:11;99001.91;;;10.18;100.00
11605;BME280;5858;43.076;25.626;2023-04-22T02:22:39;98934.56;;;9.71;100.00
11605;BME280;5858;43.076;25.626;2023-04-22T02:25:09;98963.63;;;9.96;100.00
11605;BME280;5858;43.076;25.626;2023-04-22T02:27:37;98961.25;;;9.86;100.00
11605;BME280;5858;43.076;25.626;2023-04-22T02:30:05;98810.72;;;8.92;100.00
11605;BME280;5858;43.076;25.626;2023-04-22T02:32:35;98965.97;;;9.69;100.00
11605;BME280;5858;43.076;25.626;2023-04-22T02:35:05;98989.16;;;9.84;100.00
11605;BME280;5858;43.076;25.626;2023-04-22T02:37:32;98920.88;;;9.30;100.00
11605;BME280;5858;43.076;25.626;2023-04-22T02:39:59;98903.94;;;9.23;100.00
11605;BME280;5858;43.076;25.626;2023-04-22T02:42:26;98999.97;;;9.75;100.00
11605;BME280;5858;43.076;25.626;2023-04-22T02:44:54;98854.22;;;8.93;100.00
11605;BME280;5858;43.076;25.626;2023-04-22T02:47:22;98919.88;;;9.17;100.00
11605;BME280;5858;43.076;25.626;2023-04-22T02:49:50;98941.94;;;9.25;100.00
11605;BME280;5858;43.076;25.626;2023-04-22T02:52:18;98917.72;;;8.97;100.00
11605;BME280;5858;43.076;25.626;2023-04-22T02:54:45;98865.19;;;8.68;100.00
11605;BME280;5858;43.076;25.626;2023-04-22T02:57:12;98916.44;;;8.93;100.00
11605;BME280;5858;43.076;25.626;2023-04-22T02:59:39;98940.03;;;9.19;100.00
11605;BME280;5858;43.076;25.626;2023-04-22T03:02:06;98959.06;;;9.16;100.00
11605;BME280;5858;43.076;25.626;2023-04-22T03:04:35;98949.63;;;8.91;100.00
11605;BME280;5858;43.076;25.626;2023-04-22T03:07:06;98932.69;;;8.69;100.00
11605;BME280;5858;43.076;25.626;2023-04-22T03:09:33;98996.53;;;9.08;100.00
11605;BME280;5858;43.076;25.626;2023-04-22T03:12:00;98964.88;;;8.67;100.00
11605;BME280;5858;43.076;25.626;2023-04-22T03:14:28;98906.31;;;8.28;100.00
11605;BME280;5858;43.076;25.626;2023-04-22T03:16:55;98971.78;;;8.76;100.00
11605;BME280;5858;43.076;25.626;2023-04-22T03:19:22;98877.38;;;8.25;100.00
11605;BME280;5858;43.076;25.626;2023-04-22T03:21:49;99040.53;;;9.27;100.00
11605;BME280;5858;43.076;25.626;2023-04-22T03:24:18;98975.97;;;8.94;100.00
11605;BME280;5858;43.076;25.626;2023-04-22T03:26:45;98991.66;;;9.11;100.00
11605;BME280;5858;43.076;25.626;2023-04-22T03:29:12;98956.91;;;8.82;100.00
11605;BME280;5858;43.076;25.626;2023-04-22T03:31:40;98956.44;;;8.78;100.00
11605;BME280;5858;43.076;25.626;2023-04-22T03:34:07;99018.91;;;9.22;100.00
11605;BME280;5858;43.076;25.626;2023-04-22T03:36:34;98910.81;;;8.73;100.00
11605;BME280;5858;43.076;25.626;2023-04-22T03:39:01;98942.94;;;8.95;100.00
11605;BME280;5858;43.076;25.626;2023-04-22T03:41:30;98856.75;;;8.42;100.00
11605;BME280;5858;43.076;25.626;2023-04-22T03:43:57;98986.13;;;9.13;100.00
11605;BME280;5858;43.076;25.626;2023-04-22T03:46:25;98928.47;;;8.74;100.00
11605;BME280;5858;43.076;25.626;2023-04-22T03:48:52;98990.81;;;9.11;100.00
11605;BME280;5858;43.076;25.626;2023-04-22T03:51:22;98910.59;;;8.60;100.00
11605;BME280;5858;43.076;25.626;2023-04-22T03:53:49;99033.00;;;9.30;100.00
11605;BME280;5858;43.076;25.626;2023-04-22T03:56:17;99096.88;;;9.55;100.00
11605;BME280;5858;43.076;25.626;2023-04-22T03:58:47;99008.44;;;8.97;100.00
11605;BME280;5858;43.076;25.626;2023-04-22T04:01:14;99029.69;;;9.28;100.00
11605;BME280;5858;43.076;25.626;2023-04-22T04:03:41;98964.22;;;9.03;100.00
11605;BME280;5858;43.076;25.626;2023-04-22T04:06:08;98970.47;;;9.10;100.00
11605;BME280;5858;43.076;25.626;2023-04-22T04:08:35;98908.59;;;8.77;100.00
11605;BME280;5858;43.076;25.626;2023-04-22T04:11:02;98884.66;;;8.54;100.00
11605;BME280;5858;43.076;25.626;2023-04-22T04:13:29;98902.44;;;8.76;100.00
11605;BME280;5858;43.076;25.626;2023-04-22T04:15:58;98912.25;;;8.61;100.00
11605;BME280;5858;43.076;25.626;2023-04-22T04:18:26;99047.03;;;9.62;100.00
11605;BME280;5858;43.076;25.626;2023-04-22T04:20:54;99049.16;;;9.66;100.00
11605;BME280;5858;43.076;25.626;2023-04-22T04:23:21;99056.72;;;9.63;100.00
11605;BME280;5858;43.076;25.626;2023-04-22T04:25:49;99065.81;;;9.54;100.00
11605;BME280;5858;43.076;25.626;2023-04-22T04:28:16;99004.38;;;9.24;100.00
11605;BME280;5858;43.076;25.626;2023-04-22T04:31:18;99102.03;;;9.86;100.00
11605;BME280;5858;43.076;25.626;2023-04-22T04:33:45;99076.16;;;9.86;100.00
11605;BME280;5858;43.076;25.626;2023-04-22T04:36:12;99058.09;;;9.73;100.00
11605;BME280;5858;43.076;25.626;2023-04-22T04:38:39;99082.91;;;9.97;100.00
11605;BME280;5858;43.076;25.626;2023-04-22T04:41:09;99124.44;;;10.14;100.00
11605;BME280;5858;43.076;25.626;2023-04-22T04:43:37;99052.38;;;9.76;97.50
11605;BME280;5858;43.076;25.626;2023-04-22T04:46:05;99078.00;;;9.86;97.56
11605;BME280;5858;43.076;25.626;2023-04-22T04:48:34;99113.03;;;10.20;97.48
11605;BME280;5858;43.076;25.626;2023-04-22T04:51:01;99107.59;;;10.28;97.52
11605;BME280;5858;43.076;25.626;2023-04-22T04:53:30;99046.19;;;10.05;97.03
11605;BME280;5858;43.076;25.626;2023-04-22T04:55:58;98954.41;;;9.48;96.35
11605;BME280;5858;43.076;25.626;2023-04-22T04:58:25;99007.22;;;9.82;95.38
11605;BME280;5858;43.076;25.626;2023-04-22T05:00:52;99077.88;;;10.53;94.52
11605;BME280;5858;43.076;25.626;2023-04-22T05:03:19;99130.34;;;10.90;93.03
11605;BME280;5858;43.076;25.626;2023-04-22T05:05:48;99130.69;;;11.01;92.05
11605;BME280;5858;43.076;25.626;2023-04-22T05:08:15;98968.28;;;10.23;91.41
11605;BME280;5858;43.076;25.626;2023-04-22T05:10:42;98964.72;;;10.37;90.99
11605;BME280;5858;43.076;25.626;2023-04-22T05:13:09;99061.31;;;10.85;89.66
11605;BME280;5858;43.076;25.626;2023-04-22T05:15:36;98962.84;;;10.53;88.60
11605;BME280;5858;43.076;25.626;2023-04-22T05:18:04;99089.97;;;11.34;87.93
11605;BME280;5858;43.076;25.626;2023-04-22T05:20:31;99141.25;;;11.31;88.97
11605;BME280;5858;43.076;25.626;2023-04-22T05:22:59;99123.03;;;11.20;88.76
11605;BME280;5858;43.076;25.626;2023-04-22T05:25:27;99135.06;;;11.30;89.55
11605;BME280;5858;43.076;25.626;2023-04-22T05:27:54;99100.00;;;11.04;88.86
11605;BME280;5858;43.076;25.626;2023-04-22T05:30:21;99020.34;;;10.63;89.00
11605;BME280;5858;43.076;25.626;2023-04-22T05:32:51;99079.88;;;11.08;89.93
11605;BME280;5858;43.076;25.626;2023-04-22T05:35:42;99037.41;;;10.84;89.94
11605;BME280;5858;43.076;25.626;2023-04-22T05:38:13;99074.38;;;11.16;89.28
11605;BME280;5858;43.076;25.626;2023-04-22T05:40:40;99071.56;;;11.24;89.12
11605;BME280;5858;43.076;25.626;2023-04-22T05:43:07;98967.44;;;10.87;88.74
11605;BME280;5858;43.076;25.626;2023-04-22T05:45:37;99051.56;;;11.48;88.69
11605;BME280;5858;43.076;25.626;2023-04-22T05:48:05;99018.00;;;11.24;88.37
11605;BME280;5858;43.076;25.626;2023-04-22T05:50:32;98964.38;;;11.18;88.09
11605;BME280;5858;43.076;25.626;2023-04-22T05:53:00;99044.03;;;11.65;87.83
11605;BME280;5858;43.076;25.626;2023-04-22T05:55:29;99052.28;;;11.63;86.56
11605;BME280;5858;43.076;25.626;2023-04-22T05:57:58;99074.72;;;11.62;85.24
11605;BME280;5858;43.076;25.626;2023-04-22T06:00:29;99055.25;;;11.47;85.74
11605;BME280;5858;43.076;25.626;2023-04-22T06:02:56;99146.00;;;12.06;86.71
11605;BME280;5858;43.076;25.626;2023-04-22T06:05:26;99077.06;;;11.72;87.25
11605;BME280;5858;43.076;25.626;2023-04-22T06:07:53;99176.44;;;12.26;87.35
11605;BME280;5858;43.076;25.626;2023-04-22T06:10:21;99127.63;;;12.03;87.54
11605;BME280;5858;43.076;25.626;2023-04-22T06:12:50;99166.81;;;12.32;86.83
11605;BME280;5858;43.076;25.626;2023-04-22T06:15:18;99105.50;;;11.94;86.96
11605;BME280;5858;43.076;25.626;2023-04-22T06:17:47;99153.19;;;12.34;86.56
11605;BME280;5858;43.076;25.626;2023-04-22T06:20:14;99163.50;;;12.30;86.28
11605;BME280;5858;43.076;25.626;2023-04-22T06:22:50;99064.75;;;11.78;85.00
11605;BME280;5858;43.076;25.626;2023-04-22T06:25:39;99111.91;;;11.93;85.76
11605;BME280;5858;43.076;25.626;2023-04-22T06:28:17;99033.78;;;11.41;85.24
11605;BME280;5858;43.076;25.626;2023-04-22T06:30:45;99149.13;;;12.10;86.18
11605;BME280;5858;43.076;25.626;2023-04-22T06:33:18;99118.88;;;11.88;86.02
11605;BME280;5858;43.076;25.626;2023-04-22T06:35:47;99172.22;;;12.11;86.43
11605;BME280;5858;43.076;25.626;2023-04-22T06:38:14;99151.78;;;12.10;86.71
11605;BME280;5858;43.076;25.626;2023-04-22T06:40:41;99154.03;;;12.06;86.40
11605;BME280;5858;43.076;25.626;2023-04-22T06:43:10;99204.88;;;12.49;86.75
11605;BME280;5858;43.076;25.626;2023-04-22T06:45:37;99182.75;;;12.47;86.60
11605;BME280;5858;43.076;25.626;2023-04-22T06:48:04;99109.38;;;11.85;85.17
11605;BME280;5858;43.076;25.626;2023-04-22T06:50:32;99186.53;;;12.24;85.50
11605;BME280;5858;43.076;25.626;2023-04-22T06:53:01;99142.72;;;12.11;86.13
11605;BME280;5858;43.076;25.626;2023-04-22T06:55:28;99149.34;;;12.15;86.04
11605;BME280;5858;43.076;25.626;2023-04-22T06:57:55;99031.16;;;11.47;86.00
11605;BME280;5858;43.076;25.626;2023-04-22T07:00:25;99215.00;;;12.53;85.30
11605;BME280;5858;43.076;25.626;2023-04-22T07:02:52;99155.56;;;12.22;85.52
11605;BME280;5858;43.076;25.626;2023-04-22T07:05:24;99042.50;;;11.49;85.61
11605;BME280;5858;43.076;25.626;2023-04-22T07:07:52;99162.28;;;12.39;85.95
11605;BME280;5858;43.076;25.626;2023-04-22T07:10:19;99201.41;;;12.61;85.22
11605;BME280;5858;43.076;25.626;2023-04-22T07:12:46;99209.19;;;12.84;84.95
11605;BME280;5858;43.076;25.626;2023-04-22T07:15:15;99170.47;;;12.66;85.63
11605;BME280;5858;43.076;25.626;2023-04-22T07:17:44;99145.88;;;12.62;86.05
11605;BME280;5858;43.076;25.626;2023-04-22T07:20:11;99160.31;;;12.61;85.69
11605;BME280;5858;43.076;25.626;2023-04-22T07:22:38;99051.28;;;11.99;84.01
11605;BME280;5858;43.076;25.626;2023-04-22T07:25:11;99191.44;;;12.97;83.75
11605;BME280;5858;43.076;25.626;2023-04-22T07:27:38;99194.84;;;13.18;84.10
11605;BME280;5858;43.076;25.626;2023-04-22T07:30:07;99217.00;;;13.27;84.00
11605;BME280;5858;43.076;25.626;2023-04-22T07:32:40;99144.72;;;12.84;83.99
11605;BME280;5858;43.076;25.626;2023-04-22T07:35:09;99161.31;;;13.14;83.68
11605;BME280;5858;43.076;25.626;2023-04-22T07:37:39;99233.44;;;13.78;83.83
11605;BME280;5858;43.076;25.626;2023-04-22T07:40:07;99249.97;;;13.89;82.38
11605;BME280;5858;43.076;25.626;2023-04-22T07:42:37;99212.13;;;13.83;81.66
11605;BME280;5858;43.076;25.626;2023-04-22T07:45:07;99147.56;;;13.50;80.43
11605;BME280;5858;43.076;25.626;2023-04-22T07:47:34;99164.94;;;13.61;78.93
11605;BME280;5858;43.076;25.626;2023-04-22T07:50:09;99107.63;;;13.21;79.06
11605;BME280;5858;43.076;25.626;2023-04-22T07:52:37;99187.25;;;13.48;80.22
11605;BME280;5858;43.076;25.626;2023-04-22T07:55:05;99238.81;;;13.92;79.75
11605;BME280;5858;43.076;25.626;2023-04-22T07:57:32;99242.72;;;13.76;80.37
11605;BME280;5858;43.076;25.626;2023-04-22T08:00:04;99195.75;;;13.52;80.82
11605;BME280;5858;43.076;25.626;2023-04-22T08:02:33;99227.84;;;13.93;80.96
11605;BME280;5858;43.076;25.626;2023-04-22T08:05:00;99194.28;;;13.63;79.56
11605;BME280;5858;43.076;25.626;2023-04-22T08:07:29;99078.44;;;12.91;79.99
11605;BME280;5858;43.076;25.626;2023-04-22T08:09:56;99209.84;;;13.87;81.02
11605;BME280;5858;43.076;25.626;2023-04-22T08:12:23;99238.78;;;14.18;81.53
11605;BME280;5858;43.076;25.626;2023-04-22T08:14:50;99132.88;;;13.53;81.46
11605;BME280;5858;43.076;25.626;2023-04-22T08:17:17;99253.09;;;14.25;80.27
11605;BME280;5858;43.076;25.626;2023-04-22T08:19:46;99214.59;;;13.98;80.33
11605;BME280;5858;43.076;25.626;2023-04-22T08:22:14;99254.09;;;14.17;80.46
11605;BME280;5858;43.076;25.626;2023-04-22T08:24:43;99204.66;;;13.92;80.17
11605;BME280;5858;43.076;25.626;2023-04-22T08:27:10;99238.19;;;14.23;80.80
11605;BME280;5858;43.076;25.626;2023-04-22T08:29:37;99258.25;;;14.40;79.45
11605;BME280;5858;43.076;25.626;2023-04-22T08:32:04;99118.19;;;13.62;78.74
11605;BME280;5858;43.076;25.626;2023-04-22T08:34:32;99203.19;;;14.29;79.48
11605;BME280;5858;43.076;25.626;2023-04-22T08:36:59;99188.03;;;14.41;79.90
11605;BME280;5858;43.076;25.626;2023-04-22T08:39:29;99263.94;;;14.96;79.38
11605;BME280;5858;43.076;25.626;2023-04-22T08:41:57;99257.88;;;15.07;79.06
11605;BME280;5858;43.076;25.626;2023-04-22T08:44:27;99224.41;;;14.84;80.70
11605;BME280;5858;43.076;25.626;2023-04-22T08:49:36;99158.16;;;14.69;77.93
11605;BME280;5858;43.076;25.626;2023-04-22T08:52:07;99215.09;;;15.24;77.59
11605;BME280;5858;43.076;25.626;2023-04-22T08:54:38;99173.09;;;15.03;76.99
11605;BME280;5858;43.076;25.626;2023-04-22T08:57:21;99256.19;;;15.64;77.43
11605;BME280;5858;43.076;25.626;2023-04-22T08:59:49;99187.91;;;15.57;77.51
11605;BME280;5858;43.076;25.626;2023-04-22T09:02:20;99253.03;;;16.24;77.29
11605;BME280;5858;43.076;25.626;2023-04-22T09:04:50;99152.13;;;15.75;74.14
11605;BME280;5858;43.076;25.626;2023-04-22T09:07:24;99138.97;;;15.85;75.11
11605;BME280;5858;43.076;25.626;2023-04-22T09:09:53;99204.06;;;16.38;73.51
11605;BME280;5858;43.076;25.626;2023-04-22T09:12:24;99183.53;;;16.56;73.23
11605;BME280;5858;43.076;25.626;2023-04-22T09:14:51;99234.78;;;17.17;72.78
11605;BME280;5858;43.076;25.626;2023-04-22T09:17:37;99179.53;;;17.13;71.27
11605;BME280;5858;43.076;25.626;2023-04-22T09:20:07;99147.06;;;16.83;70.08
11605;BME280;5858;43.076;25.626;2023-04-22T09:22:39;99220.19;;;17.67;68.93
11605;BME280;5858;43.076;25.626;2023-04-22T09:25:14;99076.59;;;16.96;67.83
11605;BME280;5858;43.076;25.626;2023-04-22T09:27:47;99152.28;;;16.96;65.06
11605;BME280;5858;43.076;25.626;2023-04-22T09:30:16;99214.22;;;17.76;65.37
11605;BME280;5858;43.076;25.626;2023-04-22T09:32:51;99226.22;;;17.92;65.90
11605;BME280;5858;43.076;25.626;2023-04-22T09:38:04;99245.69;;;17.59;63.69
11605;BME280;5858;43.076;25.626;2023-04-22T09:39:13;99201.34;;;17.30;64.20
11605;BME280;5858;43.076;25.626;2023-04-22T09:41:40;99226.19;;;17.69;65.58
11605;BME280;5858;43.076;25.626;2023-04-22T09:44:12;99234.31;;;17.69;66.07
11605;BME280;5858;43.076;25.626;2023-04-22T09:46:41;99210.00;;;17.02;69.31
11605;BME280;5858;43.076;25.626;2023-04-22T09:49:18;99226.75;;;16.56;72.71
11605;BME280;5858;43.076;25.626;2023-04-22T09:51:46;99246.16;;;16.71;73.55
11605;BME280;5858;43.076;25.626;2023-04-22T09:54:13;99239.16;;;16.82;73.87
11605;BME280;5858;43.076;25.626;2023-04-22T09:56:42;99210.66;;;16.67;71.95
11605;BME280;5858;43.076;25.626;2023-04-22T09:59:14;99085.50;;;15.76;71.09
11605;BME280;5858;43.076;25.626;2023-04-22T10:01:52;99229.94;;;16.71;68.70
11605;BME280;5858;43.076;25.626;2023-04-22T10:04:19;99155.06;;;16.17;69.01
11605;BME280;5858;43.076;25.626;2023-04-22T10:06:48;99232.03;;;16.69;68.07
11605;BME280;5858;43.076;25.626;2023-04-22T10:09:17;99180.38;;;16.59;69.09
11605;BME280;5858;43.076;25.626;2023-04-22T10:11:48;99073.25;;;15.98;67.01
11605;BME280;5858;43.076;25.626;2023-04-22T10:14:17;99121.63;;;16.36;64.23
11605;BME280;5858;43.076;25.626;2023-04-22T10:16:56;99128.75;;;16.30;63.57
11605;BME280;5858;43.076;25.626;2023-04-22T10:19:25;99216.69;;;16.99;65.16
11605;BME280;5858;43.076;25.626;2023-04-22T10:21:55;99204.69;;;16.95;65.47
11605;BME280;5858;43.076;25.626;2023-04-22T10:24:25;99077.28;;;16.44;65.32
11605;BME280;5858;43.076;25.626;2023-04-22T10:26:54;99130.97;;;16.88;63.39
11605;BME280;5858;43.076;25.626;2023-04-22T10:29:26;99211.50;;;17.88;56.00
11605;BME280;5858;43.076;25.626;2023-04-22T10:31:55;99192.22;;;17.96;55.91
11605;BME280;5858;43.076;25.626;2023-04-22T10:34:25;99169.75;;;18.19;57.57
11605;BME280;5858;43.076;25.626;2023-04-22T10:36:59;99055.81;;;17.62;57.25
11605;BME280;5858;43.076;25.626;2023-04-22T10:39:27;99157.53;;;18.80;57.56
11605;BME280;5858;43.076;25.626;2023-04-22T10:42:03;99146.75;;;19.25;53.18
11605;BME280;5858;43.076;25.626;2023-04-22T10:44:46;99112.38;;;19.14;46.99
11605;BME280;5858;43.076;25.626;2023-04-22T10:47:25;99152.84;;;19.61;50.04
11605;BME280;5858;43.076;25.626;2023-04-22T10:50:08;99148.66;;;19.53;49.90
11605;BME280;5858;43.076;25.626;2023-04-22T10:52:36;99085.09;;;19.21;50.98
11605;BME280;5858;43.076;25.626;2023-04-22T10:55:03;99139.69;;;19.86;49.12
11605;BME280;5858;43.076;25.626;2023-04-22T10:57:36;99018.44;;;19.25;51.84
11605;BME280;5858;43.076;25.626;2023-04-22T11:00:42;99118.44;;;19.83;48.04
11605;BME280;5858;43.076;25.626;2023-04-22T11:03:11;99171.53;;;20.07;48.20
11605;BME280;5858;43.076;25.626;2023-04-22T11:05:39;99082.78;;;19.12;47.70
11605;BME280;5858;43.076;25.626;2023-04-22T11:08:11;99161.47;;;19.29;46.11
11605;BME280;5858;43.076;25.626;2023-04-22T11:10:40;99111.19;;;18.53;47.94
11605;BME280;5858;43.076;25.626;2023-04-22T11:13:09;99098.25;;;18.32;49.91
11605;BME280;5858;43.076;25.626;2023-04-22T11:15:38;99035.06;;;17.44;48.04
11605;BME280;5858;43.076;25.626;2023-04-22T11:18:16;99192.81;;;17.86;49.21
11605;BME280;5858;43.076;25.626;2023-04-22T11:20:49;99137.34;;;17.24;48.53
11605;BME280;5858;43.076;25.626;2023-04-22T11:23:22;99208.50;;;17.54;50.28
11605;BME280;5858;43.076;25.626;2023-04-22T11:25:56;99163.59;;;17.35;49.92
11605;BME280;5858;43.076;25.626;2023-04-22T11:28:44;99202.63;;;17.27;51.04
11605;BME280;5858;43.076;25.626;2023-04-22T11:31:14;99196.94;;;17.17;52.67
11605;BME280;5858;43.076;25.626;2023-04-22T11:33:42;99076.84;;;16.28;57.55
11605;BME280;5858;43.076;25.626;2023-04-22T11:36:10;99214.50;;;16.53;62.85
11605;BME280;5858;43.076;25.626;2023-04-22T11:38:53;99147.03;;;15.60;60.61
11605;BME280;5858;43.076;25.626;2023-04-22T11:41:20;99084.72;;;14.87;59.56
11605;BME280;5858;43.076;25.626;2023-04-22T11:43:48;99139.72;;;15.04;61.14
11605;BME280;5858;43.076;25.626;2023-04-22T11:46:15;99119.44;;;15.02;55.67
11605;BME280;5858;43.076;25.626;2023-04-22T11:48:44;99101.00;;;14.61;58.42
11605;BME280;5858;43.076;25.626;2023-04-22T11:51:11;99190.88;;;15.11;58.15
11605;BME280;5858;43.076;25.626;2023-04-22T11:53:48;99244.38;;;15.52;57.87
11605;BME280;5858;43.076;25.626;2023-04-22T11:56:22;99129.91;;;14.85;57.54
11605;BME280;5858;43.076;25.626;2023-04-22T11:59:10;99146.72;;;14.80;58.23
11605;BME280;5858;43.076;25.626;2023-04-22T12:01:54;99155.06;;;15.04;57.55
11605;BME280;5858;43.076;25.626;2023-04-22T12:04:22;99148.31;;;14.88;56.79
11605;BME280;5858;43.076;25.626;2023-04-22T12:06:51;99237.66;;;15.30;55.30
11605;BME280;5858;43.076;25.626;2023-04-22T12:09:23;99074.75;;;14.49;56.26
11605;BME280;5858;43.076;25.626;2023-04-22T12:11:50;99051.81;;;14.34;54.76
11605;BME280;5858;43.076;25.626;2023-04-22T12:14:27;99203.06;;;15.27;53.15
11605;BME280;5858;43.076;25.626;2023-04-22T12:16:56;99199.06;;;15.36;53.17
11605;BME280;5858;43.076;25.626;2023-04-22T12:19:25;99181.66;;;15.32;54.10
11605;BME280;5858;43.076;25.626;2023-04-22T12:21:54;99234.19;;;15.54;53.65
11605;BME280;5858;43.076;25.626;2023-04-22T12:24:26;99186.84;;;15.33;53.39
11605;BME280;5858;43.076;25.626;2023-04-22T12:26:54;99220.56;;;15.81;51.86
11605;BME280;5858;43.076;25.626;2023-04-22T12:29:26;99135.44;;;15.28;51.36
11605;BME280;5858;43.076;25.626;2023-04-22T12:31:53;99185.44;;;15.56;51.57
11605;BME280;5858;43.076;25.626;2023-04-22T12:34:20;99216.16;;;15.86;50.43
11605;BME280;5858;43.076;25.626;2023-04-22T12:36:50;99236.72;;;15.87;53.98
11605;BME280;5858;43.076;25.626;2023-04-22T12:39:17;99228.38;;;15.89;49.66
11605;BME280;5858;43.076;25.626;2023-04-22T12:41:46;99211.63;;;16.05;49.08
11605;BME280;5858;43.076;25.626;2023-04-22T12:44:16;99131.13;;;15.52;48.90
11605;BME280;5858;43.076;25.626;2023-04-22T12:46:43;99232.84;;;16.26;48.13
11605;BME280;5858;43.076;25.626;2023-04-22T12:49:11;99223.94;;;16.44;47.61
11605;BME280;5858;43.076;25.626;2023-04-22T12:51:39;99127.22;;;15.98;46.55
11605;BME280;5858;43.076;25.626;2023-04-22T12:54:12;99201.50;;;16.68;46.24
11605;BME280;5858;43.076;25.626;2023-04-22T12:56:39;99197.19;;;16.97;44.77
11605;BME280;5858;43.076;25.626;2023-04-22T12:59:06;99118.16;;;16.47;46.45
11605;BME280;5858;43.076;25.626;2023-04-22T13:01:33;99056.81;;;16.36;47.74
11605;BME280;5858;43.076;25.626;2023-04-22T13:04:01;99184.38;;;17.53;46.25
11605;BME280;5858;43.076;25.626;2023-04-22T13:06:28;99115.03;;;17.28;44.63
11605;BME280;5858;43.076;25.626;2023-04-22T13:09:03;99053.84;;;17.04;44.77
11605;BME280;5858;43.076;25.626;2023-04-22T13:11:51;99047.28;;;17.23;43.04
11605;BME280;5858;43.076;25.626;2023-04-22T13:14:20;99056.38;;;17.64;44.11
11605;BME280;5858;43.076;25.626;2023-04-22T13:16:53;99173.75;;;18.63;45.77